createdAt,value
2018-11-26T00:00:36.855Z,17.43
2018-11-26T00:03:12.126Z,17.23
2018-11-26T00:05:40.848Z,16.93
2018-11-26T00:08:10.371Z,18.53
2018-11-26T00:11:48.492Z,16.87
2018-11-26T00:14:16.699Z,17.03
2018-11-26T00:16:44.938Z,18.00
2018-11-26T00:19:13.146Z,16.67
2018-11-26T00:21:41.378Z,18.07
2018-11-26T00:24:09.608Z,17.83
2018-11-26T00:26:37.840Z,16.60
2018-11-26T00:29:06.135Z,17.67
2018-11-26T00:31:34.355Z,16.50
2018-11-26T00:34:02.591Z,16.37
2018-11-26T00:36:30.822Z,17.60
2018-11-26T00:38:59.034Z,15.40
2018-11-26T00:41:37.924Z,16.33
2018-11-26T00:44:06.823Z,15.77
2018-11-26T00:46:35.054Z,15.23
2018-11-26T00:49:03.331Z,14.53
2018-11-26T00:51:31.573Z,14.43
2018-11-26T00:53:59.810Z,14.43
2018-11-26T00:56:28.053Z,14.77
2018-11-26T00:58:56.301Z,15.13
2018-11-26T01:01:24.543Z,14.10
2018-11-26T01:03:52.822Z,14.23
2018-11-26T01:06:21.035Z,14.83
2018-11-26T01:08:49.255Z,14.83
2018-11-26T01:11:17.513Z,14.20
2018-11-26T01:13:49.188Z,14.77
2018-11-26T01:16:17.439Z,14.30
2018-11-26T01:18:45.655Z,14.53
2018-11-26T01:21:13.890Z,14.23
2018-11-26T01:23:42.110Z,14.00
2018-11-26T01:26:10.343Z,14.00
2018-11-26T01:28:38.550Z,14.50
2018-11-26T01:31:06.833Z,15.10
2018-11-26T01:33:35.139Z,14.23
2018-11-26T01:36:03.615Z,14.70
2018-11-26T01:38:31.837Z,15.47
2018-11-26T01:41:00.062Z,14.53
2018-11-26T01:43:28.304Z,15.13
2018-11-26T01:45:56.523Z,14.37
2018-11-26T01:48:24.743Z,15.47
2018-11-26T01:50:52.970Z,15.27
2018-11-26T01:53:21.195Z,14.67
2018-11-26T01:55:49.418Z,14.47
2018-11-26T01:58:17.659Z,13.93
2018-11-26T02:00:45.883Z,14.20
2018-11-26T02:03:14.103Z,14.07
2018-11-26T02:05:42.323Z,15.20
2018-11-26T02:08:10.556Z,14.77
2018-11-26T02:10:39.594Z,15.10
2018-11-26T02:13:07.838Z,14.63
2018-11-26T02:15:39.481Z,16.03
2018-11-26T02:18:08.508Z,15.97
2018-11-26T02:20:36.803Z,14.53
2018-11-26T02:23:05.070Z,14.57
2018-11-26T02:25:33.295Z,14.93
2018-11-26T02:28:01.503Z,14.20
2018-11-26T02:30:29.718Z,14.33
2018-11-26T02:32:57.967Z,15.23
2018-11-26T02:35:26.221Z,14.87
2018-11-26T02:37:54.634Z,14.50
2018-11-26T02:40:25.936Z,14.33
2018-11-26T02:42:54.165Z,15.43
2018-11-26T02:45:22.422Z,14.80
2018-11-26T02:47:50.635Z,15.23
2018-11-26T02:50:18.920Z,15.03
2018-11-26T02:52:47.142Z,14.60
2018-11-26T02:55:15.426Z,14.90
2018-11-26T02:57:43.635Z,15.20
2018-11-26T03:00:12.806Z,14.83
2018-11-26T03:02:41.065Z,15.43
2018-11-26T03:05:12.210Z,14.60
2018-11-26T03:07:40.475Z,14.10
2018-11-26T03:10:12.726Z,15.13
2018-11-26T03:12:40.952Z,15.80
2018-11-26T03:15:11.378Z,15.10
2018-11-26T03:17:39.966Z,14.10
2018-11-26T03:20:09.585Z,14.47
2018-11-26T03:22:37.819Z,14.47
2018-11-26T03:25:07.475Z,15.70
2018-11-26T03:27:35.708Z,14.63
2018-11-26T03:30:04.607Z,15.03
2018-11-26T03:32:32.855Z,14.03
2018-11-26T03:35:01.087Z,14.97
2018-11-26T03:37:29.316Z,15.03
2018-11-26T03:39:57.567Z,15.23
2018-11-26T03:42:25.803Z,14.70
2018-11-26T03:44:54.010Z,15.00
2018-11-26T03:47:22.223Z,14.53
2018-11-26T03:49:50.435Z,15.13
2018-11-26T03:52:18.636Z,14.80
2018-11-26T03:54:46.863Z,15.37
2018-11-26T03:57:15.211Z,15.07
2018-11-26T03:59:43.431Z,14.93
2018-11-26T04:02:11.852Z,14.60
2018-11-26T04:04:40.180Z,15.43
2018-11-26T04:07:08.415Z,15.17
2018-11-26T04:09:36.641Z,14.07
2018-11-26T04:12:04.974Z,14.27
2018-11-26T04:14:33.183Z,14.30
2018-11-26T04:17:04.836Z,15.83
2018-11-26T04:19:33.207Z,14.63
2018-11-26T04:22:01.448Z,15.13
2018-11-26T04:24:29.661Z,14.53
2018-11-26T04:26:58.576Z,14.87
2018-11-26T04:29:26.123Z,14.93
2018-11-26T04:31:54.365Z,16.07
2018-11-26T04:34:22.579Z,15.70
2018-11-26T04:36:50.795Z,16.13
2018-11-26T04:39:19.016Z,15.90
2018-11-26T04:41:47.235Z,15.30
2018-11-26T04:44:15.475Z,15.63
2018-11-26T04:46:43.726Z,15.50
2018-11-26T04:49:15.587Z,15.27
2018-11-26T04:51:43.812Z,15.60
2018-11-26T04:54:12.051Z,15.70
2018-11-26T04:56:40.298Z,16.67
2018-11-26T04:59:08.515Z,17.10
2018-11-26T05:01:36.816Z,15.53
2018-11-26T05:04:05.327Z,14.73
2018-11-26T05:06:33.590Z,15.57
2018-11-26T05:09:01.787Z,14.70
2018-11-26T05:11:30.004Z,15.60
2018-11-26T05:13:58.209Z,16.80
2018-11-26T05:16:46.582Z,14.27
2018-11-26T05:19:14.824Z,15.87
2018-11-26T05:21:43.061Z,15.10
2018-11-26T05:24:11.236Z,15.23
2018-11-26T05:26:39.455Z,16.07
2018-11-26T05:29:07.695Z,14.53
2018-11-26T05:31:35.937Z,14.23
2018-11-26T05:34:04.190Z,13.90
2018-11-26T05:36:56.662Z,14.80
2018-11-26T05:39:24.890Z,14.00
2018-11-26T05:41:53.145Z,13.43
2018-11-26T05:44:21.387Z,14.80
2018-11-26T05:46:49.604Z,13.17
2018-11-26T05:49:17.835Z,14.67
2018-11-26T05:51:46.107Z,14.90
2018-11-26T05:54:14.334Z,14.00
2018-11-26T05:56:42.627Z,14.00
2018-11-26T05:59:18.724Z,13.90
2018-11-26T06:01:46.962Z,14.50
2018-11-26T06:04:15.211Z,14.23
2018-11-26T06:06:43.451Z,13.80
2018-11-26T06:09:11.822Z,14.07
2018-11-26T06:11:40.510Z,13.87
2018-11-26T06:14:08.775Z,13.47
2018-11-26T06:16:37.457Z,14.30
2018-11-26T06:19:05.904Z,14.57
2018-11-26T06:21:46.603Z,13.67
2018-11-26T06:24:33.418Z,14.60
2018-11-26T06:27:01.804Z,13.57
2018-11-26T06:29:30.043Z,15.03
2018-11-26T06:32:00.311Z,15.87
2018-11-26T06:34:28.559Z,13.80
2018-11-26T06:36:56.835Z,14.70
2018-11-26T06:39:25.055Z,15.00
2018-11-26T06:41:53.274Z,13.73
2018-11-26T06:44:21.479Z,14.27
2018-11-26T06:46:49.690Z,14.77
2018-11-26T06:49:17.926Z,14.33
2018-11-26T06:51:46.164Z,14.03
2018-11-26T06:54:14.365Z,15.27
2018-11-26T06:56:42.607Z,14.20
2018-11-26T06:59:10.827Z,15.17
2018-11-26T07:01:39.076Z,15.30
2018-11-26T07:04:07.638Z,14.60
2018-11-26T07:06:35.880Z,15.30
2018-11-26T07:09:05.075Z,14.67
2018-11-26T07:11:33.305Z,15.63
2018-11-26T07:14:01.514Z,13.83
2018-11-26T07:16:29.741Z,16.03
2018-11-26T07:18:57.968Z,15.07
2018-11-26T07:21:26.186Z,15.20
2018-11-26T07:23:54.416Z,14.50
2018-11-26T07:26:22.640Z,15.07
2018-11-26T07:28:50.865Z,14.27
2018-11-26T07:31:19.099Z,13.90
2018-11-26T07:33:47.385Z,13.70
2018-11-26T07:36:15.615Z,13.10
2018-11-26T07:38:43.827Z,13.03
2018-11-26T07:41:12.089Z,12.87
2018-11-26T07:43:40.307Z,12.77
2018-11-26T07:46:08.547Z,12.33
2018-11-26T07:48:36.798Z,12.73
2018-11-26T07:51:05.058Z,12.47
2018-11-26T07:53:33.274Z,12.00
2018-11-26T07:56:01.491Z,12.53
2018-11-26T07:58:29.712Z,12.43
2018-11-26T08:00:57.947Z,12.83
2018-11-26T08:03:26.195Z,11.50
2018-11-26T08:05:54.436Z,11.37
2018-11-26T08:08:22.665Z,12.33
2018-11-26T08:10:50.882Z,12.27
2018-11-26T08:13:19.107Z,12.37
2018-11-26T08:15:47.343Z,13.83
2018-11-26T08:18:15.563Z,13.53
2018-11-26T08:20:43.792Z,13.00
2018-11-26T08:23:12.025Z,13.03
2018-11-26T08:25:40.259Z,14.23
2018-11-26T08:28:08.512Z,14.83
2018-11-26T08:30:36.746Z,16.83
2018-11-26T08:33:05.312Z,15.47
2018-11-26T08:35:33.586Z,17.20
2018-11-26T08:38:07.641Z,17.33
2018-11-26T08:40:41.160Z,17.90
2018-11-26T08:43:14.723Z,17.17
2018-11-26T08:45:49.560Z,17.93
2018-11-26T08:48:23.045Z,18.00
2018-11-26T08:50:51.312Z,17.23
2018-11-26T08:53:19.539Z,17.57
2018-11-26T08:55:47.780Z,17.60
2018-11-26T08:58:16.003Z,18.20
2018-11-26T09:00:44.223Z,17.17
2018-11-26T09:03:17.832Z,18.03
2018-11-26T09:05:46.333Z,17.63
2018-11-26T09:08:14.951Z,18.50
2018-11-26T09:10:43.183Z,18.90
2018-11-26T09:13:11.491Z,18.33
2018-11-26T09:15:39.706Z,18.07
2018-11-26T09:18:07.963Z,18.07
2018-11-26T09:20:36.173Z,18.57
2018-11-26T09:23:04.611Z,17.03
2018-11-26T09:25:32.861Z,16.67
2018-11-26T09:28:01.108Z,16.63
2018-11-26T09:30:29.327Z,17.03
2018-11-26T09:32:57.570Z,16.53
2018-11-26T09:35:25.855Z,16.60
2018-11-26T09:37:54.083Z,16.33
2018-11-26T09:40:22.331Z,16.87
2018-11-26T09:42:50.565Z,16.07
2018-11-26T09:45:18.974Z,16.30
2018-11-26T09:47:47.181Z,17.27
2018-11-26T09:50:19.045Z,17.07
2018-11-26T09:52:47.271Z,16.80
2018-11-26T09:55:16.518Z,16.83
2018-11-26T09:57:44.761Z,15.93
2018-11-26T10:00:16.759Z,16.80
2018-11-26T10:02:46.343Z,15.87
2018-11-26T10:05:17.291Z,15.67
2018-11-26T10:07:45.520Z,17.23
2018-11-26T10:10:13.862Z,17.30
2018-11-26T10:12:42.890Z,16.03
2018-11-26T10:15:16.540Z,16.10
2018-11-26T10:17:44.763Z,15.47
2018-11-26T10:20:13.066Z,15.50
2018-11-26T10:22:41.726Z,16.03
2018-11-26T10:25:11.393Z,15.37
2018-11-26T10:27:39.642Z,15.60
2018-11-26T10:30:09.874Z,15.63
2018-11-26T10:35:30.681Z,15.77
2018-11-26T10:37:58.903Z,15.73
2018-11-26T10:40:27.872Z,16.40
2018-11-26T10:42:56.109Z,15.37
2018-11-26T10:45:25.046Z,15.17
2018-11-26T10:47:53.291Z,16.13
2018-11-26T10:50:23.481Z,15.87
2018-11-26T10:52:54.049Z,15.70
2018-11-26T10:55:28.678Z,16.17
2018-11-26T10:57:56.915Z,14.37
2018-11-26T11:00:30.491Z,15.13
2018-11-26T11:02:58.727Z,14.57
2018-11-26T11:05:27.018Z,15.10
2018-11-26T11:07:56.319Z,15.80
2018-11-26T11:10:27.892Z,16.23
2018-11-26T11:15:48.718Z,15.43
2018-11-26T11:21:28.702Z,15.20
2018-11-26T11:24:02.460Z,16.07
2018-11-26T11:26:36.282Z,14.37
2018-11-26T11:29:22.824Z,15.20
2018-11-26T11:31:58.150Z,15.80
2018-11-26T11:34:30.393Z,15.33
2018-11-26T11:37:04.490Z,16.07
2018-11-26T11:39:33.820Z,15.43
2018-11-26T11:42:14.190Z,16.37
2018-11-26T11:47:47.637Z,15.63
2018-11-26T11:50:37.883Z,15.67
2018-11-26T11:53:07.348Z,15.50
2018-11-26T11:55:40.455Z,15.13
2018-11-26T11:58:20.611Z,15.43
2018-11-26T12:00:56.802Z,15.10
2018-11-26T12:03:39.136Z,15.50
2018-11-26T12:06:09.412Z,16.10
2018-11-26T12:08:40.839Z,16.57
2018-11-26T12:11:11.073Z,15.10
2018-11-26T12:13:42.853Z,14.60
2018-11-26T12:16:11.205Z,14.80
2018-11-26T12:18:54.078Z,16.87
2018-11-26T12:21:22.327Z,16.33
2018-11-26T12:23:50.592Z,15.87
2018-11-26T12:26:18.861Z,15.70
2018-11-26T12:28:47.165Z,15.47
2018-11-26T12:31:15.424Z,15.70
2018-11-26T12:33:43.681Z,16.10
2018-11-26T12:36:11.905Z,15.83
2018-11-26T12:38:40.167Z,15.57
2018-11-26T12:41:08.649Z,16.63
2018-11-26T12:43:36.909Z,15.73
2018-11-26T12:46:05.188Z,15.90
2018-11-26T12:48:33.421Z,16.93
2018-11-26T12:51:01.721Z,16.73
2018-11-26T12:53:30.004Z,16.93
2018-11-26T12:55:58.239Z,16.50
2018-11-26T12:58:26.466Z,17.03
2018-11-26T13:00:54.754Z,15.67
2018-11-26T13:03:23.000Z,16.70
2018-11-26T13:05:51.252Z,17.03
2018-11-26T13:08:19.484Z,15.53
2018-11-26T13:10:47.732Z,16.00
2018-11-26T13:13:15.948Z,16.90
2018-11-26T13:15:44.167Z,16.03
2018-11-26T13:18:12.392Z,16.60
2018-11-26T13:20:40.884Z,16.63
2018-11-26T13:23:09.868Z,15.93
2018-11-26T13:25:41.798Z,17.13
2018-11-26T13:28:14.211Z,16.63
2018-11-26T13:30:45.366Z,16.97
2018-11-26T13:33:15.108Z,17.47
2018-11-26T13:35:43.759Z,16.80
2018-11-26T13:38:22.258Z,17.43
2018-11-26T13:40:50.501Z,15.83
2018-11-26T13:43:18.761Z,15.90
2018-11-26T13:45:48.256Z,16.87
2018-11-26T13:48:17.555Z,15.97
2018-11-26T13:50:55.747Z,17.53
2018-11-26T13:53:24.017Z,16.67
2018-11-26T13:55:52.276Z,15.90
2018-11-26T13:58:20.512Z,16.83
2018-11-26T14:00:48.800Z,16.50
2018-11-26T14:03:18.135Z,15.87
2018-11-26T14:05:46.382Z,16.70
2018-11-26T14:08:14.619Z,16.73
2018-11-26T14:10:42.869Z,15.97
2018-11-26T14:13:12.925Z,16.33
2018-11-26T14:15:41.177Z,15.57
2018-11-26T14:20:44.860Z,16.10
2018-11-26T14:23:19.401Z,15.90
2018-11-26T14:25:47.625Z,15.73
2018-11-26T14:28:15.859Z,16.20
2018-11-26T14:30:44.108Z,15.33
2018-11-26T14:33:12.383Z,16.20
2018-11-26T14:35:40.641Z,16.10
2018-11-26T14:38:09.666Z,15.10
2018-11-26T14:40:41.454Z,16.93
2018-11-26T14:43:09.774Z,15.87
2018-11-26T14:45:38.016Z,15.73
2018-11-26T14:48:06.751Z,15.93
2018-11-26T14:50:34.975Z,15.83
2018-11-26T14:53:05.227Z,15.63
2018-11-26T14:55:35.212Z,15.03
2018-11-26T14:58:03.515Z,16.40
2018-11-26T15:00:31.806Z,15.77
2018-11-26T15:03:00.035Z,16.50
2018-11-26T15:05:28.295Z,16.17
2018-11-26T15:07:56.569Z,16.70
2018-11-26T15:10:25.438Z,16.17
2018-11-26T15:12:53.675Z,16.40
2018-11-26T15:15:23.700Z,16.37
2018-11-26T15:17:51.962Z,15.17
2018-11-26T15:20:22.365Z,16.07
2018-11-26T15:22:51.183Z,16.20
2018-11-26T15:25:21.591Z,15.90
2018-11-26T15:27:50.259Z,15.80
2018-11-26T15:30:30.759Z,15.70
2018-11-26T15:32:59.067Z,15.97
2018-11-26T15:35:35.664Z,15.17
2018-11-26T15:40:57.095Z,15.73
2018-11-26T15:43:25.316Z,16.30
2018-11-26T15:45:53.548Z,15.93
2018-11-26T15:48:21.764Z,15.23
2018-11-26T15:50:50.239Z,16.03
2018-11-26T15:53:18.447Z,16.03
2018-11-26T15:55:46.689Z,16.37
2018-11-26T15:58:14.941Z,15.23
2018-11-26T16:00:43.185Z,15.17
2018-11-26T16:03:11.485Z,14.67
2018-11-26T16:05:39.700Z,14.80
2018-11-26T16:08:09.580Z,14.57
2018-11-26T16:10:37.792Z,15.43
2018-11-26T16:13:07.449Z,15.47
2018-11-26T16:15:37.464Z,15.07
2018-11-26T16:18:10.364Z,15.93
2018-11-26T16:20:41.798Z,15.53
2018-11-26T16:23:10.853Z,14.60
2018-11-26T16:25:41.440Z,15.73
2018-11-26T16:28:10.417Z,15.30
2018-11-26T16:30:38.709Z,15.23
2018-11-26T16:33:07.695Z,15.40
2018-11-26T16:35:38.349Z,14.97
2018-11-26T16:38:10.804Z,14.87
2018-11-26T16:40:39.068Z,15.77
2018-11-26T16:43:07.974Z,15.47
2018-11-26T16:45:36.205Z,15.67
2018-11-26T16:48:08.110Z,14.13
2018-11-26T16:50:48.268Z,16.23
2018-11-26T16:53:19.476Z,14.67
2018-11-26T16:55:45.847Z,15.97
2018-11-26T16:58:14.351Z,15.10
2018-11-26T17:00:42.608Z,15.23
2018-11-26T17:03:10.845Z,16.70
2018-11-26T17:05:40.397Z,15.53
2018-11-26T17:08:10.028Z,15.80
2018-11-26T17:10:38.241Z,14.83
2018-11-26T17:13:06.781Z,15.03
2018-11-26T17:15:36.069Z,15.23
2018-11-26T17:18:22.402Z,16.17
2018-11-26T17:20:56.349Z,15.97
2018-11-26T17:23:24.572Z,15.70
2018-11-26T17:25:52.872Z,15.83
2018-11-26T17:28:21.083Z,15.80
2018-11-26T17:30:50.380Z,15.10
2018-11-26T17:33:18.625Z,14.97
2018-11-26T17:35:52.876Z,15.93
2018-11-26T17:38:37.706Z,15.93
2018-11-26T17:41:11.655Z,15.87
2018-11-26T17:43:39.967Z,15.90
2018-11-26T17:46:08.296Z,15.03
2018-11-26T17:48:36.524Z,16.00
2018-11-26T17:51:06.820Z,16.23
2018-11-26T17:53:35.071Z,15.57
2018-11-26T17:56:03.296Z,15.87
2018-11-26T17:58:32.555Z,16.77
2018-11-26T18:01:16.089Z,16.30
2018-11-26T18:03:48.255Z,15.93
2018-11-26T18:06:16.629Z,18.10
2018-11-26T18:08:44.921Z,18.03
2018-11-26T18:11:13.143Z,17.77
2018-11-26T18:13:41.361Z,16.50
2018-11-26T18:16:09.684Z,18.27
2018-11-26T18:21:33.815Z,17.07
2018-11-26T18:24:09.072Z,17.07
2018-11-26T18:26:37.340Z,16.83
2018-11-26T18:29:08.497Z,16.63
2018-11-26T18:31:36.752Z,16.33
2018-11-26T18:34:05.137Z,15.97
2018-11-26T18:36:41.753Z,15.50
2018-11-26T18:39:16.162Z,17.23
2018-11-26T18:41:44.394Z,15.83
2018-11-26T18:44:13.735Z,16.47
2018-11-26T18:46:46.800Z,15.03
2018-11-26T18:49:34.459Z,15.70
2018-11-26T18:52:03.731Z,15.53
2018-11-26T18:54:38.972Z,15.70
2018-11-26T18:57:07.290Z,15.97
2018-11-26T18:59:35.688Z,16.67
2018-11-26T19:02:06.005Z,16.27
2018-11-26T19:04:34.265Z,15.30
2018-11-26T19:07:04.577Z,15.27
2018-11-26T19:09:32.800Z,15.60
2018-11-26T19:12:06.636Z,16.17
2018-11-26T19:14:34.912Z,15.83
2018-11-26T19:17:03.136Z,16.80
2018-11-26T19:19:31.336Z,17.27
2018-11-26T19:21:59.593Z,15.70
2018-11-26T19:24:28.556Z,16.00
2018-11-26T19:27:17.166Z,15.37
2018-11-26T19:29:48.706Z,15.53
2018-11-26T19:32:16.979Z,16.60
2018-11-26T19:34:45.252Z,17.03
2018-11-26T19:37:15.594Z,17.30
2018-11-26T19:39:44.888Z,16.10
2018-11-26T19:42:13.184Z,16.20
2018-11-26T19:44:47.577Z,16.10
2018-11-26T19:47:15.869Z,16.60
2018-11-26T19:49:44.089Z,16.20
2018-11-26T19:52:12.410Z,16.60
2018-11-26T19:54:40.835Z,16.27
2018-11-26T19:57:09.085Z,17.00
2018-11-26T19:59:37.344Z,16.87
2018-11-26T20:02:07.735Z,16.87
2018-11-26T20:04:41.144Z,16.77
2018-11-26T20:07:11.376Z,15.60
2018-11-26T20:09:39.585Z,16.07
2018-11-26T20:12:07.838Z,15.80
2018-11-26T20:14:36.754Z,15.00
2018-11-26T20:17:07.126Z,15.13
2018-11-26T20:19:40.927Z,16.10
2018-11-26T20:22:09.218Z,16.80
2018-11-26T20:24:37.771Z,16.27
2018-11-26T20:27:06.248Z,15.30
2018-11-26T20:29:36.178Z,15.57
2018-11-26T20:32:04.566Z,14.93
2018-11-26T20:34:32.842Z,16.13
2018-11-26T20:37:01.187Z,16.07
2018-11-26T20:39:29.509Z,15.90
2018-11-26T20:42:02.094Z,16.47
2018-11-26T20:44:35.093Z,16.50
2018-11-26T20:47:09.084Z,15.80
2018-11-26T20:49:37.284Z,15.67
2018-11-26T20:52:05.822Z,16.57
2018-11-26T20:54:34.036Z,16.00
2018-11-26T20:57:02.508Z,17.07
2018-11-26T20:59:30.790Z,16.33
2018-11-26T21:01:59.204Z,16.57
2018-11-26T21:04:27.460Z,17.10
2018-11-26T21:06:55.735Z,16.93
2018-11-26T21:09:23.981Z,17.77
2018-11-26T21:11:52.229Z,17.13
2018-11-26T21:17:15.793Z,17.33
2018-11-26T21:19:44.063Z,17.53
2018-11-26T21:22:12.287Z,17.60
2018-11-26T21:24:40.588Z,17.30
2018-11-26T21:27:15.329Z,17.50
2018-11-26T21:29:44.623Z,16.73
2018-11-26T21:32:12.908Z,18.73
2018-11-26T21:34:41.165Z,17.87
2018-11-26T21:37:09.441Z,17.90
2018-11-26T21:39:37.712Z,18.40
2018-11-26T21:42:11.009Z,19.27
2018-11-26T21:44:39.258Z,18.30
2018-11-26T21:47:07.487Z,19.10
2018-11-26T21:49:35.760Z,19.60
2018-11-26T21:52:05.095Z,19.97
2018-11-26T21:54:33.407Z,20.50
2018-11-26T21:57:05.248Z,19.17
2018-11-26T21:59:33.555Z,19.90
2018-11-26T22:02:01.816Z,19.90
2018-11-26T22:04:30.038Z,19.13
2018-11-26T22:06:58.279Z,21.00
2018-11-26T22:09:26.500Z,19.53
2018-11-26T22:11:55.776Z,21.17
2018-11-26T22:14:26.078Z,19.90
2018-11-26T22:16:54.337Z,22.10
2018-11-26T22:19:24.578Z,20.97
2018-11-26T22:21:52.809Z,21.83
2018-11-26T22:24:26.848Z,21.77
2018-11-26T22:26:55.114Z,22.13
2018-11-26T22:29:23.465Z,18.90
2018-11-26T22:31:51.708Z,18.43
2018-11-26T22:34:24.677Z,20.33
2018-11-26T22:36:52.963Z,18.57
2018-11-26T22:39:21.200Z,20.13
2018-11-26T22:41:49.429Z,20.17
2018-11-26T22:44:17.649Z,18.80
2018-11-26T22:46:45.866Z,18.13
2018-11-26T22:49:18.021Z,17.97
2018-11-26T22:51:51.248Z,18.80
2018-11-26T22:54:14.476Z,19.33
2018-11-26T22:56:44.789Z,19.37
2018-11-26T22:59:13.069Z,18.73
2018-11-26T23:01:42.355Z,18.63
2018-11-26T23:04:10.641Z,18.80
2018-11-26T23:06:38.856Z,19.87
2018-11-26T23:09:08.348Z,21.93
2018-11-26T23:11:36.609Z,19.37
2018-11-26T23:14:04.997Z,21.93
2018-11-26T23:16:33.277Z,21.13
2018-11-26T23:19:01.524Z,21.30
2018-11-26T23:21:29.760Z,20.63
2018-11-26T23:23:58.096Z,22.37
2018-11-26T23:26:26.324Z,23.43
2018-11-26T23:28:54.569Z,24.43
2018-11-26T23:31:22.852Z,23.47
2018-11-26T23:33:51.211Z,24.40
2018-11-26T23:36:19.420Z,23.50
2018-11-26T23:38:47.619Z,24.00
2018-11-26T23:41:15.911Z,24.10
2018-11-26T23:43:44.208Z,23.30
2018-11-26T23:46:13.487Z,22.80
2018-11-26T23:48:42.781Z,24.43
2018-11-26T23:51:11.011Z,23.33
2018-11-26T23:53:41.309Z,23.70
2018-11-26T23:56:09.536Z,24.40
2018-11-26T23:58:45.613Z,23.43
